Time;durP1;ratioP1;P1;durP2;ratioP2;P2;SDS_P1;SDS_P2;PMS_P1;PMS_P2;Temp;Humidity;BMP_temperature;BMP_pressure;BME280_temperature;BME280_humidity;BME280_pressure;Samples;Min_cycle;Max_cycle;Signal;HPM_P1;HPM_P2
2022/10/06 00:04:44;;;;;;;;;;;;;;;10.90;100.00;96553.09;10561820;28;1945;-77
2022/10/06 00:09:47;;;;;;;;;;;;;;;10.95;100.00;96558.53;10566041;28;1965;-76
2022/10/06 00:14:50;;;;;;;;;;;;;;;10.90;100.00;96553.09;10561388;28;2119;-77
2022/10/06 00:19:53;;;;;;;;;;;;;;;10.79;100.00;96554.88;10566947;28;2179;-76
2022/10/06 00:24:57;;;;;;;;;;;;;;;11.04;100.00;96560.47;10559452;28;2125;-76
2022/10/06 00:30:00;;;;;;;;;;;;;;;11.10;100.00;96561.34;10568954;28;2190;-77
2022/10/06 00:35:12;;;;;;;;;;;;;;;11.20;100.00;96564.13;10561116;28;2007;-75
2022/10/06 00:40:16;;;;;;;;;;;;;;;11.32;100.00;96558.53;10562617;28;1904;-76
2022/10/06 00:45:22;;;;;;;;;;;;;;;11.25;100.00;96560.63;10565446;28;1956;-76
2022/10/06 00:50:25;;;;;;;;;;;;;;;11.19;100.00;96557.09;10541323;28;2034;-76
2022/10/06 00:55:29;;;;;;;;;;;;;;;11.21;100.00;96567.63;10551404;28;2112;-76
2022/10/06 01:00:43;;;;;;;;;;;;;;;11.19;100.00;96567.84;10561182;28;2024;-75
2022/10/06 01:05:47;;;;;;;;;;;;;;;11.17;100.00;96567.31;10554298;28;1976;-76
2022/10/06 01:10:50;;;;;;;;;;;;;;;11.09;100.00;96567.78;10549774;28;1909;-75
2022/10/06 01:15:54;;;;;;;;;;;;;;;11.09;100.00;96563.22;10573575;27;2080;-76
2022/10/06 01:20:57;;;;;;;;;;;;;;;11.02;100.00;96561.81;10556359;28;1939;-75
2022/10/06 01:26:01;;;;;;;;;;;;;;;10.86;100.00;96568.13;10537625;28;1960;-75
2022/10/06 01:31:05;;;;;;;;;;;;;;;10.85;100.00;96572.69;10571160;27;1918;-74
2022/10/06 01:36:09;;;;;;;;;;;;;;;10.80;100.00;96572.66;10558116;28;2072;-74
2022/10/06 01:41:12;;;;;;;;;;;;;;;10.66;100.00;96580.31;10560998;28;2034;-76
2022/10/06 01:46:16;;;;;;;;;;;;;;;10.60;100.00;96585.91;10559286;28;2121;-76
2022/10/06 01:51:19;;;;;;;;;;;;;;;10.67;100.00;96595.38;10555155;28;1961;-77
2022/10/06 01:56:23;;;;;;;;;;;;;;;10.65;100.00;96589.44;10556146;28;1942;-76
2022/10/06 02:01:26;;;;;;;;;;;;;;;10.55;100.00;96594.72;10545606;28;2002;-76
2022/10/06 02:06:30;;;;;;;;;;;;;;;10.62;100.00;96595.31;10548441;28;1994;-77
2022/10/06 02:11:34;;;;;;;;;;;;;;;10.66;100.00;96601.81;10557971;28;1979;-77
2022/10/06 02:16:37;;;;;;;;;;;;;;;10.55;100.00;96600.91;10565217;28;1953;-76
2022/10/06 02:21:40;;;;;;;;;;;;;;;10.56;100.00;96607.13;10548707;28;1937;-76
2022/10/06 02:26:44;;;;;;;;;;;;;;;10.48;100.00;96610.22;10567611;28;1948;-75
2022/10/06 02:31:48;;;;;;;;;;;;;;;10.37;100.00;96612.03;10553906;28;2122;-77
2022/10/06 02:36:52;;;;;;;;;;;;;;;10.36;100.00;96618.44;10558361;28;2058;-76
2022/10/06 02:41:56;;;;;;;;;;;;;;;10.36;100.00;96623.81;10550068;28;2022;-76
2022/10/06 02:46:59;;;;;;;;;;;;;;;10.28;100.00;96626.94;10563735;28;1956;-76
2022/10/06 02:52:04;;;;;;;;;;;;;;;10.22;100.00;96631.41;10551968;28;2015;-78
2022/10/06 02:57:07;;;;;;;;;;;;;;;10.16;100.00;96645.84;10546837;28;1911;-78
2022/10/06 03:02:11;;;;;;;;;;;;;;;10.06;100.00;96645.72;10565960;28;2059;-76
2022/10/06 03:07:15;;;;;;;;;;;;;;;10.08;100.00;96648.16;10563950;28;2058;-75
2022/10/06 03:12:19;;;;;;;;;;;;;;;9.95;100.00;96654.69;10586794;27;1980;-78
2022/10/06 03:17:23;;;;;;;;;;;;;;;9.90;100.00;96662.69;10571076;28;1953;-77
2022/10/06 03:22:27;;;;;;;;;;;;;;;9.84;100.00;96669.84;10546591;28;2061;-76
2022/10/06 03:27:31;;;;;;;;;;;;;;;9.82;100.00;96676.53;10567452;28;2054;-75
2022/10/06 03:32:39;;;;;;;;;;;;;;;9.69;100.00;96675.00;10550177;28;1960;-77
2022/10/06 03:37:42;;;;;;;;;;;;;;;9.71;100.00;96676.38;10558841;28;1928;-77
2022/10/06 03:42:46;;;;;;;;;;;;;;;9.68;100.00;96686.81;10561566;28;1929;-77
2022/10/06 03:47:50;;;;;;;;;;;;;;;9.63;100.00;96689.41;10559760;28;2028;-77
2022/10/06 03:52:54;;;;;;;;;;;;;;;9.60;100.00;96685.31;10558957;28;1922;-76
2022/10/06 03:57:57;;;;;;;;;;;;;;;9.60;100.00;96701.44;10564959;28;1882;-78
2022/10/06 04:03:01;;;;;;;;;;;;;;;9.57;100.00;96701.94;10563016;28;1920;-76
2022/10/06 04:08:05;;;;;;;;;;;;;;;9.51;100.00;96707.47;10566821;28;1967;-78
2022/10/06 04:13:09;;;;;;;;;;;;;;;9.53;100.00;96719.56;10568992;28;1969;-76
2022/10/06 04:18:12;;;;;;;;;;;;;;;9.47;100.00;96710.63;10572160;28;1939;-76
2022/10/06 04:23:16;;;;;;;;;;;;;;;9.43;100.00;96717.56;10544776;28;1943;-75
2022/10/06 04:28:21;;;;;;;;;;;;;;;9.47;100.00;96718.66;10565068;28;1908;-77
2022/10/06 04:33:25;;;;;;;;;;;;;;;9.52;100.00;96720.63;10560202;28;1989;-76
2022/10/06 04:38:29;;;;;;;;;;;;;;;9.47;100.00;96729.41;10553530;28;2049;-76
2022/10/06 04:43:33;;;;;;;;;;;;;;;9.50;100.00;96733.50;10552369;28;2092;-77
2022/10/06 04:48:36;;;;;;;;;;;;;;;9.50;100.00;96736.19;10556158;28;2012;-78
2022/10/06 04:53:40;;;;;;;;;;;;;;;9.50;100.00;96738.88;10570960;28;1997;-78
2022/10/06 04:58:44;;;;;;;;;;;;;;;9.50;100.00;96738.06;10538308;28;2103;-78
2022/10/06 05:03:47;;;;;;;;;;;;;;;9.54;100.00;96745.34;10564846;28;1899;-76
2022/10/06 05:08:51;;;;;;;;;;;;;;;9.60;100.00;96744.38;10569652;28;1959;-77
2022/10/06 05:13:55;;;;;;;;;;;;;;;9.59;100.00;96756.19;10559952;27;2157;-73
2022/10/06 05:18:58;;;;;;;;;;;;;;;9.58;100.00;96746.50;10544223;28;1873;-74
2022/10/06 05:24:02;;;;;;;;;;;;;;;9.65;100.00;96746.34;10555489;28;1987;-73
2022/10/06 05:29:06;;;;;;;;;;;;;;;9.73;100.00;96757.50;10563601;28;2123;-75
2022/10/06 05:34:09;;;;;;;;;;;;;;;9.74;100.00;96769.88;10549593;28;1993;-75
2022/10/06 05:39:13;;;;;;;;;;;;;;;9.85;100.00;96772.72;10569314;28;2006;-73
2022/10/06 05:44:17;;;;;;;;;;;;;;;9.95;100.00;96780.94;10562620;28;2035;-73
2022/10/06 05:49:20;;;;;;;;;;;;;;;10.10;100.00;96783.84;10549458;28;1943;-74
2022/10/06 05:54:24;;;;;;;;;;;;;;;10.27;100.00;96790.06;10562509;28;1917;-74
2022/10/06 05:59:28;;;;;;;;;;;;;;;10.46;100.00;96792.47;10563894;28;1963;-75
2022/10/06 06:04:32;;;;;;;;;;;;;;;10.62;100.00;96805.03;10564373;28;1943;-73
2022/10/06 06:09:36;;;;;;;;;;;;;;;10.70;100.00;96814.59;10563585;28;1943;-72
2022/10/06 06:20:01;;;;;;;;;;;;;;;11.09;100.00;96820.72;10558210;28;2003;-68
2022/10/06 06:25:05;;;;;;;;;;;;;;;11.25;100.00;96827.88;10555855;28;1885;-68
2022/10/06 06:30:09;;;;;;;;;;;;;;;11.53;100.00;96834.13;10567624;28;1953;-68
2022/10/06 06:35:13;;;;;;;;;;;;;;;11.68;100.00;96845.03;10571522;27;1928;-68
2022/10/06 06:40:17;;;;;;;;;;;;;;;11.93;100.00;96841.00;10557266;28;2125;-68
2022/10/06 06:45:21;;;;;;;;;;;;;;;12.27;100.00;96847.75;10555679;28;1913;-68
2022/10/06 06:50:24;;;;;;;;;;;;;;;12.47;100.00;96859.75;10551769;28;2076;-69
2022/10/06 06:55:28;;;;;;;;;;;;;;;12.67;100.00;96854.53;10553032;28;2047;-69
2022/10/06 07:00:32;;;;;;;;;;;;;;;12.88;100.00;96864.34;10557518;28;2069;-70
2022/10/06 07:05:38;;;;;;;;;;;;;;;13.10;100.00;96864.19;10547719;28;2000;-68
2022/10/06 07:10:43;;;;;;;;;;;;;;;13.34;100.00;96871.88;10550420;28;2142;-67
2022/10/06 07:26:31;;;;;;;;;;;;;;;13.84;100.00;96894.75;10535923;28;2047;-68
2022/10/06 07:31:34;;;;;;;;;;;;;;;14.07;100.00;96897.75;10560608;28;2071;-72
2022/10/06 07:36:37;;;;;;;;;;;;;;;14.31;100.00;96898.06;10547942;28;2096;-69
2022/10/06 07:41:40;;;;;;;;;;;;;;;14.45;100.00;96898.34;10557843;28;1968;-70
2022/10/06 07:46:44;;;;;;;;;;;;;;;14.72;100.00;96902.69;10563030;28;2084;-68
2022/10/06 07:51:47;;;;;;;;;;;;;;;14.95;99.16;96907.53;10560420;28;2046;-68
2022/10/06 07:56:50;;;;;;;;;;;;;;;15.28;98.34;96914.22;10559118;27;2085;-81
2022/10/06 08:01:54;;;;;;;;;;;;;;;15.64;98.03;96916.81;10552687;28;2069;-81
2022/10/06 08:06:57;;;;;;;;;;;;;;;15.87;97.04;96931.63;10563218;28;2085;-84
2022/10/06 08:12:31;;;;;;;;;;;;;;;16.04;93.39;96937.50;10537248;28;2009;-70
2022/10/06 08:17:25;;;;;;;;;;;;;;;16.10;93.68;96933.66;10539131;28;2011;-70
2022/10/06 08:22:29;;;;;;;;;;;;;;;16.16;93.63;96934.44;10560233;28;2025;-70
2022/10/06 08:27:33;;;;;;;;;;;;;;;16.19;93.30;96936.59;10545512;28;1986;-72
2022/10/06 08:32:37;;;;;;;;;;;;;;;16.38;94.34;96940.25;10556550;28;2087;-72
2022/10/06 08:37:40;;;;;;;;;;;17.00;99.90;;;16.58;92.79;96942.00;10552890;28;2085;-71
2022/10/06 08:42:43;;;;;;;;;;;;;;;16.59;91.26;96940.91;10548222;28;1978;-72
2022/10/06 08:47:49;;;;;;;;;;;;;;;16.66;91.16;96938.69;10553494;28;2212;-71
2022/10/06 08:52:52;;;;;;;;;;;;;;;16.69;92.23;96940.03;10546170;28;2084;-74
2022/10/06 08:57:55;;;;;;;;;;;;;;;16.85;92.12;96944.25;10548506;28;1984;-78
2022/10/06 09:02:59;;;;;;;;;;;;;;;17.05;91.80;96948.72;10545568;28;2018;-73
2022/10/06 09:08:02;;;;;;;;;;;;;;;17.24;89.69;96952.34;10553106;28;2011;-71
2022/10/06 09:13:05;;;;;;;;;;;;;;;17.22;89.16;96957.22;10543819;28;2026;-71
2022/10/06 09:18:09;;;;;;;;;;;;;;;17.33;90.00;96954.41;10554278;28;1956;-71
2022/10/06 09:23:12;;;;;;;;;;;;;;;17.45;90.01;96947.47;10545384;28;1955;-70
2022/10/06 09:28:16;;;;;;;;;;;;;;;17.69;90.28;96952.91;10551239;28;2185;-70
2022/10/06 09:33:19;;;;;;;;;;;;;;;17.97;87.72;96944.97;10558484;27;2091;-70
2022/10/06 09:38:23;;;;;;;;;;;;;;;17.83;89.82;96962.03;10563688;28;2003;-69
2022/10/06 09:43:26;;;;;;;;;;;;;;;18.33;86.30;96967.09;10548254;28;2112;-71
2022/10/06 09:48:29;;;;;;;;;;;;;;;18.51;86.67;96951.81;10551038;28;2096;-69
2022/10/06 09:53:33;;;;;;;;;;;;;;;18.43;88.13;96955.22;10544577;28;1993;-72
2022/10/06 09:58:39;;;;;;;;;;;;;;;18.42;87.01;96953.59;10552118;28;2101;-71
2022/10/06 10:03:42;;;;;;;;;;;;;;;18.47;87.36;96948.91;10544020;28;2053;-71
2022/10/06 10:09:04;;;;;;;;;;;;;;;18.64;88.54;96951.91;10547324;28;1996;-71
2022/10/06 10:14:08;;;;;;;;;;;;;;;18.76;87.23;96953.38;10552431;28;1987;-71
2022/10/06 10:19:11;;;;;;;;;;;;;;;18.63;87.21;96953.00;10567202;28;2072;-72
2022/10/06 10:24:14;;;;;;;;;;;;;;;18.91;86.91;96944.97;10555181;28;2157;-74
2022/10/06 10:29:18;;;;;;;;;;;;;;;19.58;83.71;96956.28;10566473;28;1949;-73
2022/10/06 10:34:21;;;;;;;;;;;;;;;19.95;81.34;96955.28;10561326;28;2221;-73
2022/10/06 10:39:27;;;;;;;;;;;;;;;19.95;80.36;96957.19;10574719;28;2051;-72
2022/10/06 10:44:31;;;;;;;;;;;;;;;19.26;87.22;96957.13;10551994;28;2039;-74
2022/10/06 10:49:34;;;;;;;;;;;;;;;19.23;86.95;96955.03;10551781;28;2100;-75
2022/10/06 10:54:39;;;;;;;;;;;;;;;19.12;87.78;96956.31;10564198;27;1992;-75
2022/10/06 10:59:42;;;;;;;;;;;;;;;19.62;86.34;96960.03;10564789;28;2005;-75
2022/10/06 11:04:46;;;;;;;;;;;;;;;19.00;89.80;96964.16;10565320;28;2373;-74
2022/10/06 11:09:49;;;;;;;;;;;;;;;18.93;91.27;96958.28;10560525;28;2117;-73
2022/10/06 11:14:53;;;;;;;;;;;;;;;19.55;88.76;96958.81;10570405;27;2049;-74
2022/10/06 11:19:56;;;;;;;;;;;;;;;20.07;84.45;96948.50;10559544;28;2040;-74
2022/10/06 11:25:00;;;;;;;;;;;;;;;20.57;81.55;96953.97;10559194;28;2088;-74
2022/10/06 11:30:04;;;;;;;;;;;;;;;20.34;83.16;96956.63;10571061;28;1944;-74
2022/10/06 11:35:08;;;;;;;;;;;;;;;19.75;85.82;96949.44;10558449;28;2002;-74
2022/10/06 11:40:16;;;;;;;;;;;;;;;19.23;91.38;96944.13;10552940;28;2081;-75
2022/10/06 11:45:20;;;;;;;;;;;;;;;19.30;90.90;96936.34;10556809;28;2275;-73
2022/10/06 11:50:24;;;;;;;;;;;;;;;19.25;91.30;96935.63;10559064;28;2055;-75
2022/10/06 11:55:27;;;;;;;;;;;;;;;19.54;88.97;96929.91;10557071;28;2050;-76
2022/10/06 12:00:31;;;;;;;;;;;;;;;19.20;86.46;96919.38;10550753;28;2046;-74
2022/10/06 12:05:34;;;;;;;;;;;;;;;19.58;84.88;96926.28;10547806;28;2222;-75
2022/10/06 12:10:58;;;;;;;;;;;;;;;19.96;82.44;96921.41;10554879;28;2001;-74
2022/10/06 12:16:01;;;;;;;;;;;;;;;20.00;83.95;96920.81;10547215;28;2055;-72
2022/10/06 12:21:24;;;;;;;;;;;;;;;19.55;85.25;96917.91;10550275;28;2106;-71
2022/10/06 12:26:27;;;;;;;;;;;;;;;19.43;87.50;96916.47;10564140;28;2040;-71
2022/10/06 12:31:31;;;;;;;;;;;;;;;19.31;91.01;96918.09;10548870;28;2037;-76
2022/10/06 12:36:34;;;;;;;;;;;;;;;19.50;89.67;96916.06;10561533;28;2064;-78
2022/10/06 12:41:37;;;;;;;;;;;;;;;19.38;89.13;96908.38;10560030;28;2194;-73
2022/10/06 12:46:40;;;;;;;;;;;;;;;18.87;93.13;96906.59;10569966;27;2119;-73
2022/10/06 12:51:44;;;;;;;;;;;;;;;18.59;96.80;96894.00;10563288;28;2098;-74
2022/10/06 12:56:50;;;;;;;;;;;;;;;18.50;96.65;96893.03;10561463;28;2345;-77
2022/10/06 13:01:53;;;;;;;;;;;;;;;18.55;94.13;96891.03;10555047;28;2071;-76
2022/10/06 13:06:57;;;;;;;;;;;;;;;18.61;94.79;96892.56;10568662;28;2062;-76
2022/10/06 13:12:00;;;;;;;;;;;;;;;18.69;88.01;96888.38;10556097;28;2208;-77
2022/10/06 13:17:03;;;;;;;;;;;;;;;18.85;89.78;96881.56;10539766;28;2116;-77
2022/10/06 13:22:06;;;;;;;;;;;;;;;19.15;87.81;96880.22;10557263;28;2033;-76
2022/10/06 13:27:10;;;;;;;;;;;;;;;19.37;89.72;96868.59;10562076;28;2083;-75
2022/10/06 13:32:13;;;;;;;;;;;;;;;19.54;92.32;96873.47;10562037;28;1956;-75
2022/10/06 13:37:16;;;;;;;;;;;;;;;19.30;93.02;96879.13;10536835;28;2030;-76
2022/10/06 13:42:20;;;;;;;;;;;;;;;18.96;94.93;96882.22;10563412;28;2164;-76
2022/10/06 13:47:24;;;;;;;;;;;;;;;19.02;95.17;96878.28;10546623;28;2055;-77
2022/10/06 13:52:27;;;;;;;;;;;;;;;19.15;92.92;96873.97;10559216;28;2128;-77
2022/10/06 13:57:30;;;;;;;;;;;;;;;19.06;92.50;96878.47;10563456;28;2060;-77
2022/10/06 14:02:35;;;;;;;;;;;;;;;18.67;93.81;96874.28;10568209;28;1975;-78
2022/10/06 14:07:38;;;;;;;;;;;;;;;18.69;95.20;96877.50;10560634;28;2064;-77
2022/10/06 14:12:41;;;;;;;;;;;;;;;18.64;95.77;96869.41;10559324;28;2054;-76
2022/10/06 14:17:45;;;;;;;;;;;;;;;18.63;94.48;96870.47;10560573;28;2023;-77
2022/10/06 14:22:48;;;;;;;;;;;;;;;18.68;93.25;96869.63;10559978;28;2091;-76
2022/10/06 14:27:53;;;;;;;;;;;;;;;18.92;93.71;96866.75;10549439;28;2075;-76
2022/10/06 14:32:56;;;;;;;;;;;;;;;18.94;91.95;96867.25;10555247;28;2129;-76
2022/10/06 14:38:00;;;;;;;;;;;;;;;18.81;93.40;96860.69;10553255;28;2003;-77
2022/10/06 14:43:03;;;;;;;;;;;;;;;18.47;94.90;96861.78;10557235;28;2056;-77
2022/10/06 14:48:07;;;;;;;;;;;;;;;18.53;95.76;96865.22;10553395;28;2042;-76
2022/10/06 14:53:11;;;;;;;;;;;;;;;18.46;95.67;96867.53;10560956;28;2038;-76
2022/10/06 14:58:15;;;;;;;;;;;;;;;18.28;98.71;96856.38;10570252;28;1983;-77
2022/10/06 15:03:18;;;;;;;;;;;;;;;18.33;98.20;96847.31;10569570;28;2053;-76
2022/10/06 15:08:22;;;;;;;;;;;;;;;18.28;98.12;96850.91;10556179;28;2417;-75
2022/10/06 15:13:25;;;;;;;;;;;;;;;18.42;99.41;96852.88;10564057;28;2479;-78
2022/10/06 15:18:29;;;;;;;;;;;;;;;18.25;100.00;96854.22;10574349;28;1909;-77
2022/10/06 15:23:32;;;;;;;;;;;;;;;18.19;100.00;96857.31;10561470;28;2051;-75
2022/10/06 15:33:56;;;;;;;;;;;;;;;17.98;100.00;96845.94;10567125;28;2085;-76
2022/10/06 15:38:59;;;;;;;;;;;;;;;17.78;100.00;96847.84;10566693;28;2094;-76
2022/10/06 15:44:03;;;;;;;;;;;;;;;17.52;100.00;96846.53;10570404;28;1940;-76
2022/10/06 15:49:06;;;;;;;;;;;;;;;17.51;100.00;96836.78;10568643;28;2378;-76
2022/10/06 15:54:09;;;;;;;;;;;;;;;17.31;100.00;96837.84;10559617;28;2084;-76
2022/10/06 15:59:12;;;;;;;;;;;;;;;17.19;100.00;96840.16;10575694;28;2091;-76
2022/10/06 16:04:23;;;;;;;;;;;;;;;17.06;100.00;96841.66;10567033;28;2090;-78
2022/10/06 16:09:27;;;;;;;;;;;;;;;16.95;100.00;96846.41;10561852;28;1953;-77
2022/10/06 16:14:35;;;;;;;;;;;;;;;16.90;100.00;96848.34;10563814;28;1902;-75
2022/10/06 16:19:38;;;;;;;;;;;;;;;16.71;100.00;96853.69;10537373;28;2049;-76
2022/10/06 16:24:44;;;;;;;;;;;;;;;16.62;100.00;96852.69;10569325;28;2078;-76
2022/10/06 16:29:48;;;;;;;;;;;;;;;16.43;100.00;96860.72;10565437;28;2090;-77
2022/10/06 16:34:51;;;;;;;;;;;;;;;16.28;100.00;96860.81;10541259;28;2106;-76
2022/10/06 16:39:54;;;;;;;;;;;;;;;16.20;100.00;96857.63;10554363;28;2029;-77
2022/10/06 16:44:58;;;;;;;;;;;;;;;15.99;100.00;96858.88;10560548;28;2045;-76
2022/10/06 16:50:01;;;;;;;;;;;;;;;15.67;100.00;96872.91;10559703;28;2125;-77
2022/10/06 16:55:05;;;;;;;;;;;;;;;15.54;100.00;96881.59;10570955;27;2008;-77
2022/10/06 17:00:08;;;;;;;;;;;;;;;15.60;100.00;96878.59;10564534;28;2072;-76
2022/10/06 17:05:12;;;;;;;;;;;;;;;15.49;100.00;96879.72;10556830;28;2396;-76
2022/10/06 17:10:15;;;;;;;;;;;;;;;15.38;100.00;96883.56;10566719;28;1998;-76
2022/10/06 17:15:23;;;;;;;;;;;;;;;15.31;100.00;96891.97;10556006;28;2011;-76
2022/10/06 17:20:26;;;;;;;;;;;;;;;15.19;100.00;96896.09;10549686;28;2090;-76
2022/10/06 17:25:29;;;;;;;;;;;;;;;14.99;100.00;96903.16;10558591;28;2023;-77
2022/10/06 17:30:33;;;;;;;;;;;;;;;14.83;100.00;96904.28;10564461;28;1940;-76
2022/10/06 17:35:39;;;;;;;;;;;;;;;14.75;100.00;96907.53;10549864;28;2116;-76
2022/10/06 17:40:42;;;;;;;;;;;;;;;14.68;100.00;96912.41;10557531;28;2081;-77
2022/10/06 17:45:46;;;;;;;;;;;;;;;14.55;100.00;96914.59;10551960;28;1854;-77
2022/10/06 17:50:49;;;;;;;;;;;;;;;14.35;100.00;96914.56;10557717;28;2078;-76
2022/10/06 17:55:53;;;;;;;;;;;;;;;14.25;100.00;96914.53;10552770;28;2188;-76
2022/10/06 18:00:58;;;;;;;;;;;;;;;14.24;100.00;96918.31;10561933;28;1929;-75
2022/10/06 18:06:02;;;;;;;;;;;;;;;14.13;100.00;96919.41;10557828;28;1989;-77
2022/10/06 18:16:26;;;;;;;;;;;;;;;14.21;100.00;96919.69;10567630;28;2057;-75
2022/10/06 18:21:34;;;;;;;;;;;;;;;14.05;100.00;96918.03;10552087;28;1983;-77
2022/10/06 18:26:40;;;;;;;;;;;;;;;14.00;100.00;96923.44;10563866;28;2056;-75
2022/10/06 18:31:44;;;;;;;;;;;;;;;14.07;100.00;96916.69;10564331;28;2231;-75
2022/10/06 18:36:47;;;;;;;;;;;;;;;13.94;100.00;96924.50;10557204;28;1952;-75
2022/10/06 18:41:51;;;;;;;;;;;;;;;13.87;100.00;96915.81;10565642;28;1979;-76
2022/10/06 18:52:16;;;;;;;;;;;;;;;13.73;100.00;96921.72;10568175;28;1996;-76
2022/10/06 18:57:19;;;;;;;;;;;;;;;13.66;100.00;96923.06;10567642;28;2093;-76
2022/10/06 19:02:31;;;;;;;;;;;;;;;13.65;100.00;96924.13;10567511;28;2081;-74
2022/10/06 19:07:34;;;;;;;;;;;;;;;13.47;100.00;96926.22;10557962;28;1956;-76
2022/10/06 19:12:38;;;;;;;;;;;;;;;13.35;100.00;96927.50;10564858;28;1878;-75
2022/10/06 19:17:44;;;;;;;;;;;;;;;13.33;100.00;96932.38;10562978;28;1984;-74
2022/10/06 19:22:48;;;;;;;;;;;;;;;13.16;100.00;96929.81;10567766;28;1992;-77
2022/10/06 19:27:51;;;;;;;;;;;;;;;13.22;100.00;96926.09;10570596;28;2094;-76
2022/10/06 19:32:54;;;;;;;;;;;;;;;13.17;100.00;96926.88;10549427;28;2142;-76
2022/10/06 19:37:57;;;;;;;;;;;;;;;13.12;100.00;96920.63;10562493;28;2217;-79
2022/10/06 19:43:01;;;;;;;;;;;;;;;13.06;100.00;96924.38;10556478;28;1988;-75
2022/10/06 19:48:04;;;;;;;;;;;;;;;12.97;100.00;96932.94;10571354;28;2151;-75
2022/10/06 19:53:07;;;;;;;;;;;;;;;12.89;100.00;96936.13;10568248;28;1885;-77
2022/10/06 19:58:11;;;;;;;;;;;;;;;12.84;100.00;96933.41;10555045;28;2112;-77
2022/10/06 20:03:14;;;;;;;;;;;;;;;12.74;100.00;96932.53;10550998;28;2003;-76
2022/10/06 20:08:18;;;;;;;;;;;;;;;12.70;100.00;96934.91;10558453;28;2078;-76
2022/10/06 20:13:22;;;;;;;;;;;;;;;12.69;100.00;96930.59;10546002;28;1957;-76
2022/10/06 20:18:25;;;;;;;;;;;;;;;12.56;100.00;96931.03;10556980;28;1881;-76
2022/10/06 20:23:29;;;;;;;;;;;;;;;12.52;100.00;96930.72;10557491;28;1754;-76
2022/10/06 20:28:32;;;;;;;;;;;;;;;12.47;100.00;96935.25;10572319;27;2075;-76
2022/10/06 20:33:35;;;;;;;;;;;;;;;12.42;100.00;96931.47;10560564;28;1972;-76
2022/10/06 20:43:59;;;;;;;;;;;;;;;12.27;100.00;96930.50;10528775;28;1992;-75
2022/10/06 20:49:02;;;;;;;;;;;;;;;12.55;100.00;96934.81;10567654;28;2028;-76
2022/10/06 20:54:06;;;;;;;;;;;;;;;12.52;100.00;96932.63;10563231;28;2015;-76
2022/10/06 20:59:09;;;;;;;;;;;;;;;12.67;100.00;96932.75;10559279;28;2023;-76
2022/10/06 21:04:13;;;;;;;;;;;;;;;12.76;100.00;96928.50;10547478;28;2121;-75
2022/10/06 21:09:17;;;;;;;;;;;;;;;12.79;100.00;96917.19;10552289;28;2046;-76
2022/10/06 21:14:20;;;;;;;;;;;;;;;12.83;100.00;96915.59;10550172;28;1993;-76
2022/10/06 21:19:25;;;;;;;;;;;;;;;12.82;100.00;96905.88;10557062;28;1921;-76
2022/10/06 21:24:28;;;;;;;;;;;;;;;12.90;100.00;96899.97;10553839;28;2123;-75
2022/10/06 21:29:32;;;;;;;;;;;;;;;12.94;100.00;96893.00;10562713;28;2036;-76
2022/10/06 21:34:36;;;;;;;;;;;;;;;12.96;100.00;96892.72;10556512;28;2143;-75
2022/10/06 21:39:40;;;;;;;;;;;;;;;13.01;100.00;96894.66;10563006;28;2049;-75
2022/10/06 21:44:47;;;;;;;;;;;;;;;13.05;100.00;96874.97;10546303;28;2250;-78
2022/10/06 21:49:50;;;;;;;;;;;;;;;13.02;100.00;96877.38;10562342;28;2151;-76
2022/10/06 21:54:53;;;;;;;;;;;;;;;12.94;100.00;96874.09;10539008;28;1902;-75
2022/10/06 21:59:56;;;;;;;;;;;;;;;12.94;100.00;96876.00;10566250;28;1968;-77
2022/10/06 22:05:00;;;;;;;;;;;;;;;13.04;100.00;96864.41;10556614;28;2058;-78
2022/10/06 22:10:05;;;;;;;;;;;;;;;13.12;100.00;96863.94;10564754;28;2050;-75
2022/10/06 22:15:08;;;;;;;;;;;;;;;12.98;100.00;96859.03;10552664;28;1930;-76
2022/10/06 22:20:12;;;;;;;;;;;;;;;12.97;100.00;96860.06;10558672;28;1968;-76
2022/10/06 22:25:16;;;;;;;;;;;;;;;12.81;100.00;96857.56;10561185;28;2002;-74
2022/10/06 22:30:29;;;;;;;;;;;;;;;12.86;100.00;96853.03;10555943;28;2009;-77
2022/10/06 22:35:33;;;;;;;;;;;;;;;12.93;100.00;96842.78;10545704;28;2051;-74
2022/10/06 22:40:36;;;;;;;;;;;;;;;12.99;100.00;96841.75;10563883;28;2106;-74
2022/10/06 22:45:39;;;;;;;;;;;;;;;12.98;100.00;96837.44;10563599;28;2045;-77
2022/10/06 22:50:43;;;;;;;;;;;;;;;12.99;100.00;96824.75;10558890;28;2063;-73
2022/10/06 22:55:46;;;;;;;;;;;;;;;12.96;100.00;96828.75;10563126;28;2056;-75
2022/10/06 23:00:53;;;;;;;;;;;;;;;13.09;100.00;96815.88;10564476;28;2098;-75
2022/10/06 23:06:06;;;;;;;;;;;;;;;13.06;100.00;96811.00;10532475;28;2020;-75
2022/10/06 23:11:10;;;;;;;;;;;;;;;12.89;100.00;96803.09;10557507;28;1992;-75
2022/10/06 23:16:13;;;;;;;;;;;;;;;12.89;100.00;96800.41;10540118;28;1944;-80
2022/10/06 23:21:20;;;;;;;;;;;;;;;12.91;100.00;96801.75;10565570;28;2149;-77
2022/10/06 23:26:24;;;;;;;;;;;;;;;12.92;100.00;96792.59;10560574;28;2078;-75
2022/10/06 23:31:27;;;;;;;;;;;;;;;12.77;100.00;96797.91;10568722;28;1806;-76
2022/10/06 23:36:32;;;;;;;;;;;;;;;12.84;100.00;96785.00;10552421;28;2060;-77
2022/10/06 23:41:36;;;;;;;;;;;;;;;12.82;100.00;96789.03;10559879;28;2122;-76
2022/10/06 23:46:39;;;;;;;;;;;;;;;12.80;100.00;96786.59;10559296;28;2063;-76
2022/10/06 23:51:42;;;;;;;;;;;;;;;12.90;100.00;96780.44;10566393;28;2094;-76
2022/10/06 23:56:48;;;;;;;;;;;;;;;12.84;100.00;96776.91;10570709;28;2079;-76
